sensor_id;sensor_type;location;lat;lon;timestamp;P1;durP1;ratioP1;P2;durP2;ratioP2
52940;SDS011;62001;53.366;6.636;2023-11-21T00:00:21;47.63;;;7.65;;
52940;SDS011;62001;53.366;6.636;2023-11-21T00:02:47;38.15;;;6.90;;
52940;SDS011;62001;53.366;6.636;2023-11-21T00:05:13;43.10;;;7.57;;
52940;SDS011;62001;53.366;6.636;2023-11-21T00:07:40;41.78;;;7.28;;
52940;SDS011;62001;53.366;6.636;2023-11-21T00:10:07;40.42;;;7.40;;
52940;SDS011;62001;53.366;6.636;2023-11-21T00:12:35;38.65;;;7.07;;
52940;SDS011;62001;53.366;6.636;2023-11-21T00:15:02;37.75;;;7.20;;
52940;SDS011;62001;53.366;6.636;2023-11-21T00:17:35;31.95;;;6.63;;
52940;SDS011;62001;53.366;6.636;2023-11-21T00:20:02;34.13;;;7.63;;
52940;SDS011;62001;53.366;6.636;2023-11-21T00:22:31;32.28;;;7.10;;
52940;SDS011;62001;53.366;6.636;2023-11-21T00:25:01;35.30;;;7.28;;
52940;SDS011;62001;53.366;6.636;2023-11-21T00:27:30;32.90;;;7.28;;
52940;SDS011;62001;53.366;6.636;2023-11-21T00:29:57;31.33;;;7.57;;
52940;SDS011;62001;53.366;6.636;2023-11-21T00:32:23;43.08;;;8.75;;
52940;SDS011;62001;53.366;6.636;2023-11-21T00:34:49;31.80;;;7.95;;
52940;SDS011;62001;53.366;6.636;2023-11-21T00:37:15;31.85;;;7.22;;
52940;SDS011;62001;53.366;6.636;2023-11-21T00:39:40;37.67;;;7.93;;
52940;SDS011;62001;53.366;6.636;2023-11-21T00:42:06;32.53;;;7.43;;
52940;SDS011;62001;53.366;6.636;2023-11-21T00:44:33;29.30;;;7.32;;
52940;SDS011;62001;53.366;6.636;2023-11-21T00:46:59;30.35;;;7.75;;
52940;SDS011;62001;53.366;6.636;2023-11-21T00:49:25;28.20;;;7.30;;
52940;SDS011;62001;53.366;6.636;2023-11-21T00:51:51;32.83;;;7.47;;
52940;SDS011;62001;53.366;6.636;2023-11-21T00:54:17;26.38;;;7.53;;
52940;SDS011;62001;53.366;6.636;2023-11-21T00:56:43;26.45;;;7.82;;
52940;SDS011;62001;53.366;6.636;2023-11-21T00:59:09;31.20;;;8.00;;
52940;SDS011;62001;53.366;6.636;2023-11-21T01:01:35;24.83;;;7.13;;
52940;SDS011;62001;53.366;6.636;2023-11-21T01:04:02;23.70;;;7.43;;
52940;SDS011;62001;53.366;6.636;2023-11-21T01:06:28;28.75;;;7.53;;
52940;SDS011;62001;53.366;6.636;2023-11-21T01:08:55;27.67;;;7.18;;
52940;SDS011;62001;53.366;6.636;2023-11-21T01:11:20;32.17;;;8.10;;
52940;SDS011;62001;53.366;6.636;2023-11-21T01:13:46;28.08;;;7.35;;
52940;SDS011;62001;53.366;6.636;2023-11-21T01:16:12;37.75;;;7.93;;
52940;SDS011;62001;53.366;6.636;2023-11-21T01:18:38;28.85;;;7.75;;
52940;SDS011;62001;53.366;6.636;2023-11-21T01:21:04;31.48;;;8.20;;
52940;SDS011;62001;53.366;6.636;2023-11-21T01:23:30;30.67;;;7.82;;
52940;SDS011;62001;53.366;6.636;2023-11-21T01:25:56;31.77;;;7.80;;
52940;SDS011;62001;53.366;6.636;2023-11-21T01:28:22;20.98;;;6.72;;
52940;SDS011;62001;53.366;6.636;2023-11-21T01:30:48;27.27;;;7.53;;
52940;SDS011;62001;53.366;6.636;2023-11-21T01:33:14;30.30;;;8.55;;
52940;SDS011;62001;53.366;6.636;2023-11-21T01:35:41;30.42;;;8.40;;
52940;SDS011;62001;53.366;6.636;2023-11-21T01:38:07;40.70;;;8.48;;
52940;SDS011;62001;53.366;6.636;2023-11-21T01:40:33;28.77;;;8.70;;
52940;SDS011;62001;53.366;6.636;2023-11-21T01:43:00;28.58;;;8.20;;
52940;SDS011;62001;53.366;6.636;2023-11-21T01:45:28;37.33;;;8.85;;
52940;SDS011;62001;53.366;6.636;2023-11-21T01:47:58;31.40;;;8.50;;
52940;SDS011;62001;53.366;6.636;2023-11-21T01:50:25;31.27;;;8.30;;
52940;SDS011;62001;53.366;6.636;2023-11-21T01:52:52;31.88;;;8.02;;
52940;SDS011;62001;53.366;6.636;2023-11-21T01:55:18;23.42;;;6.68;;
52940;SDS011;62001;53.366;6.636;2023-11-21T01:57:45;26.83;;;8.25;;
52940;SDS011;62001;53.366;6.636;2023-11-21T02:00:11;23.63;;;8.43;;
52940;SDS011;62001;53.366;6.636;2023-11-21T02:02:46;27.55;;;7.97;;
52940;SDS011;62001;53.366;6.636;2023-11-21T02:05:14;36.53;;;8.75;;
52940;SDS011;62001;53.366;6.636;2023-11-21T02:07:43;46.92;;;9.32;;
52940;SDS011;62001;53.366;6.636;2023-11-21T02:10:10;35.00;;;8.57;;
52940;SDS011;62001;53.366;6.636;2023-11-21T02:12:40;32.13;;;8.55;;
52940;SDS011;62001;53.366;6.636;2023-11-21T02:15:07;30.58;;;8.30;;
52940;SDS011;62001;53.366;6.636;2023-11-21T02:17:42;46.10;;;9.38;;
52940;SDS011;62001;53.366;6.636;2023-11-21T02:20:10;30.55;;;8.27;;
52940;SDS011;62001;53.366;6.636;2023-11-21T02:22:40;35.35;;;8.90;;
52940;SDS011;62001;53.366;6.636;2023-11-21T02:25:07;31.05;;;9.32;;
52940;SDS011;62001;53.366;6.636;2023-11-21T02:27:33;34.10;;;9.27;;
52940;SDS011;62001;53.366;6.636;2023-11-21T02:29:59;33.00;;;9.82;;
52940;SDS011;62001;53.366;6.636;2023-11-21T02:32:26;26.95;;;9.52;;
52940;SDS011;62001;53.366;6.636;2023-11-21T02:34:52;29.88;;;8.60;;
52940;SDS011;62001;53.366;6.636;2023-11-21T02:37:20;30.17;;;9.30;;
52940;SDS011;62001;53.366;6.636;2023-11-21T02:39:45;38.95;;;9.68;;
52940;SDS011;62001;53.366;6.636;2023-11-21T02:42:11;30.30;;;8.82;;
52940;SDS011;62001;53.366;6.636;2023-11-21T02:44:37;34.90;;;9.73;;
52940;SDS011;62001;53.366;6.636;2023-11-21T02:47:03;31.42;;;9.27;;
52940;SDS011;62001;53.366;6.636;2023-11-21T02:49:29;32.13;;;9.38;;
52940;SDS011;62001;53.366;6.636;2023-11-21T02:51:56;38.10;;;9.65;;
52940;SDS011;62001;53.366;6.636;2023-11-21T02:54:21;31.02;;;9.40;;
52940;SDS011;62001;53.366;6.636;2023-11-21T02:56:48;27.67;;;9.52;;
52940;SDS011;62001;53.366;6.636;2023-11-21T02:59:15;33.35;;;10.35;;
52940;SDS011;62001;53.366;6.636;2023-11-21T03:01:41;34.50;;;10.80;;
52940;SDS011;62001;53.366;6.636;2023-11-21T03:04:07;35.35;;;10.13;;
52940;SDS011;62001;53.366;6.636;2023-11-21T03:06:33;34.20;;;10.05;;
52940;SDS011;62001;53.366;6.636;2023-11-21T03:08:59;33.42;;;10.50;;
52940;SDS011;62001;53.366;6.636;2023-11-21T03:11:25;29.50;;;11.05;;
52940;SDS011;62001;53.366;6.636;2023-11-21T03:13:51;32.53;;;10.65;;
52940;SDS011;62001;53.366;6.636;2023-11-21T03:16:17;33.53;;;10.35;;
52940;SDS011;62001;53.366;6.636;2023-11-21T03:18:44;33.63;;;10.38;;
52940;SDS011;62001;53.366;6.636;2023-11-21T03:21:10;31.92;;;10.40;;
52940;SDS011;62001;53.366;6.636;2023-11-21T03:23:37;33.00;;;10.18;;
52940;SDS011;62001;53.366;6.636;2023-11-21T03:26:03;40.55;;;11.38;;
52940;SDS011;62001;53.366;6.636;2023-11-21T03:28:29;39.08;;;12.07;;
52940;SDS011;62001;53.366;6.636;2023-11-21T03:30:57;30.10;;;10.52;;
52940;SDS011;62001;53.366;6.636;2023-11-21T03:33:25;37.30;;;10.48;;
52940;SDS011;62001;53.366;6.636;2023-11-21T03:35:50;36.45;;;10.93;;
52940;SDS011;62001;53.366;6.636;2023-11-21T03:38:18;46.00;;;11.00;;
52940;SDS011;62001;53.366;6.636;2023-11-21T03:40:44;39.28;;;11.15;;
52940;SDS011;62001;53.366;6.636;2023-11-21T03:43:10;38.88;;;12.45;;
52940;SDS011;62001;53.366;6.636;2023-11-21T03:45:36;41.47;;;12.73;;
52940;SDS011;62001;53.366;6.636;2023-11-21T03:48:02;45.13;;;12.05;;
52940;SDS011;62001;53.366;6.636;2023-11-21T03:50:28;38.92;;;11.40;;
52940;SDS011;62001;53.366;6.636;2023-11-21T03:52:54;42.88;;;11.88;;
52940;SDS011;62001;53.366;6.636;2023-11-21T03:55:23;57.30;;;11.68;;
52940;SDS011;62001;53.366;6.636;2023-11-21T03:57:50;43.75;;;11.60;;
52940;SDS011;62001;53.366;6.636;2023-11-21T04:00:16;51.97;;;12.32;;
52940;SDS011;62001;53.366;6.636;2023-11-21T04:02:42;61.72;;;12.50;;
52940;SDS011;62001;53.366;6.636;2023-11-21T04:05:08;60.30;;;12.90;;
52940;SDS011;62001;53.366;6.636;2023-11-21T04:07:34;75.57;;;14.18;;
52940;SDS011;62001;53.366;6.636;2023-11-21T04:10:02;82.13;;;14.45;;
52940;SDS011;62001;53.366;6.636;2023-11-21T04:12:28;52.28;;;14.05;;
52940;SDS011;62001;53.366;6.636;2023-11-21T04:14:54;70.65;;;15.30;;
52940;SDS011;62001;53.366;6.636;2023-11-21T04:17:20;75.45;;;16.55;;
52940;SDS011;62001;53.366;6.636;2023-11-21T04:19:46;59.00;;;17.08;;
52940;SDS011;62001;53.366;6.636;2023-11-21T04:22:12;72.32;;;19.70;;
52940;SDS011;62001;53.366;6.636;2023-11-21T04:24:38;111.10;;;21.08;;
52940;SDS011;62001;53.366;6.636;2023-11-21T04:27:04;73.18;;;20.00;;
52940;SDS011;62001;53.366;6.636;2023-11-21T04:29:30;76.78;;;19.35;;
52940;SDS011;62001;53.366;6.636;2023-11-21T04:31:55;60.53;;;18.27;;
52940;SDS011;62001;53.366;6.636;2023-11-21T04:34:21;64.55;;;17.60;;
52940;SDS011;62001;53.366;6.636;2023-11-21T04:36:47;53.60;;;16.40;;
52940;SDS011;62001;53.366;6.636;2023-11-21T04:39:13;42.47;;;14.55;;
52940;SDS011;62001;53.366;6.636;2023-11-21T04:41:38;47.70;;;15.63;;
52940;SDS011;62001;53.366;6.636;2023-11-21T04:44:05;50.80;;;14.73;;
52940;SDS011;62001;53.366;6.636;2023-11-21T04:46:31;36.80;;;14.38;;
52940;SDS011;62001;53.366;6.636;2023-11-21T04:48:57;35.42;;;13.70;;
52940;SDS011;62001;53.366;6.636;2023-11-21T04:51:23;37.67;;;13.85;;
52940;SDS011;62001;53.366;6.636;2023-11-21T04:53:49;33.92;;;13.82;;
52940;SDS011;62001;53.366;6.636;2023-11-21T04:56:15;37.38;;;13.98;;
52940;SDS011;62001;53.366;6.636;2023-11-21T04:58:41;39.10;;;15.45;;
52940;SDS011;62001;53.366;6.636;2023-11-21T05:01:07;36.15;;;15.50;;
52940;SDS011;62001;53.366;6.636;2023-11-21T05:03:33;35.08;;;15.25;;
52940;SDS011;62001;53.366;6.636;2023-11-21T05:06:00;37.67;;;16.63;;
52940;SDS011;62001;53.366;6.636;2023-11-21T05:08:25;41.60;;;16.15;;
52940;SDS011;62001;53.366;6.636;2023-11-21T05:10:52;45.20;;;18.63;;
52940;SDS011;62001;53.366;6.636;2023-11-21T05:13:18;43.42;;;18.38;;
52940;SDS011;62001;53.366;6.636;2023-11-21T05:15:52;44.20;;;18.98;;
52940;SDS011;62001;53.366;6.636;2023-11-21T05:18:23;50.35;;;19.75;;
52940;SDS011;62001;53.366;6.636;2023-11-21T05:20:52;47.80;;;20.38;;
52940;SDS011;62001;53.366;6.636;2023-11-21T05:23:18;52.85;;;21.33;;
52940;SDS011;62001;53.366;6.636;2023-11-21T05:25:44;58.78;;;21.67;;
52940;SDS011;62001;53.366;6.636;2023-11-21T05:28:11;49.75;;;20.83;;
52940;SDS011;62001;53.366;6.636;2023-11-21T05:30:37;57.92;;;22.42;;
52940;SDS011;62001;53.366;6.636;2023-11-21T05:33:04;60.30;;;23.85;;
52940;SDS011;62001;53.366;6.636;2023-11-21T05:35:30;57.55;;;24.80;;
52940;SDS011;62001;53.366;6.636;2023-11-21T05:37:56;63.47;;;24.80;;
52940;SDS011;62001;53.366;6.636;2023-11-21T05:40:22;65.18;;;24.98;;
52940;SDS011;62001;53.366;6.636;2023-11-21T05:42:48;69.30;;;23.55;;
52940;SDS011;62001;53.366;6.636;2023-11-21T05:45:14;60.70;;;23.50;;
52940;SDS011;62001;53.366;6.636;2023-11-21T05:47:43;58.70;;;23.13;;
52940;SDS011;62001;53.366;6.636;2023-11-21T05:50:11;62.90;;;23.83;;
52940;SDS011;62001;53.366;6.636;2023-11-21T05:52:42;66.25;;;23.98;;
52940;SDS011;62001;53.366;6.636;2023-11-21T05:55:09;61.63;;;26.52;;
52940;SDS011;62001;53.366;6.636;2023-11-21T05:57:38;69.15;;;26.95;;
52940;SDS011;62001;53.366;6.636;2023-11-21T06:02:36;60.70;;;25.13;;
52940;SDS011;62001;53.366;6.636;2023-11-21T06:05:03;63.70;;;26.95;;
52940;SDS011;62001;53.366;6.636;2023-11-21T06:07:29;61.95;;;27.15;;
52940;SDS011;62001;53.366;6.636;2023-11-21T06:09:55;57.80;;;26.60;;
52940;SDS011;62001;53.366;6.636;2023-11-21T06:12:21;53.85;;;25.48;;
52940;SDS011;62001;53.366;6.636;2023-11-21T06:14:47;56.53;;;25.90;;
52940;SDS011;62001;53.366;6.636;2023-11-21T06:17:13;45.80;;;23.30;;
52940;SDS011;62001;53.366;6.636;2023-11-21T06:19:39;43.58;;;22.60;;
52940;SDS011;62001;53.366;6.636;2023-11-21T06:22:05;44.17;;;22.27;;
52940;SDS011;62001;53.366;6.636;2023-11-21T06:24:31;41.97;;;22.13;;
52940;SDS011;62001;53.366;6.636;2023-11-21T06:26:57;42.63;;;20.80;;
52940;SDS011;62001;53.366;6.636;2023-11-21T06:29:22;38.33;;;20.63;;
52940;SDS011;62001;53.366;6.636;2023-11-21T06:31:49;40.15;;;21.30;;
52940;SDS011;62001;53.366;6.636;2023-11-21T06:34:14;37.47;;;20.35;;
52940;SDS011;62001;53.366;6.636;2023-11-21T06:36:40;41.78;;;22.70;;
52940;SDS011;62001;53.366;6.636;2023-11-21T06:39:06;38.30;;;21.65;;
52940;SDS011;62001;53.366;6.636;2023-11-21T06:41:33;37.97;;;21.65;;
52940;SDS011;62001;53.366;6.636;2023-11-21T06:43:59;42.97;;;22.67;;
52940;SDS011;62001;53.366;6.636;2023-11-21T06:46:25;41.58;;;21.98;;
52940;SDS011;62001;53.366;6.636;2023-11-21T06:48:51;41.08;;;22.52;;
52940;SDS011;62001;53.366;6.636;2023-11-21T06:51:17;42.40;;;24.05;;
52940;SDS011;62001;53.366;6.636;2023-11-21T06:53:43;40.17;;;23.90;;
52940;SDS011;62001;53.366;6.636;2023-11-21T06:56:16;41.53;;;23.02;;
52940;SDS011;62001;53.366;6.636;2023-11-21T06:58:43;42.45;;;23.73;;
52940;SDS011;62001;53.366;6.636;2023-11-21T07:01:12;41.90;;;24.10;;
52940;SDS011;62001;53.366;6.636;2023-11-21T07:03:39;42.63;;;23.95;;
52940;SDS011;62001;53.366;6.636;2023-11-21T07:06:06;46.80;;;25.98;;
52940;SDS011;62001;53.366;6.636;2023-11-21T07:08:32;43.40;;;24.98;;
52940;SDS011;62001;53.366;6.636;2023-11-21T07:10:58;45.45;;;25.98;;
52940;SDS011;62001;53.366;6.636;2023-11-21T07:13:24;46.17;;;25.33;;
52940;SDS011;62001;53.366;6.636;2023-11-21T07:15:51;45.03;;;25.52;;
52940;SDS011;62001;53.366;6.636;2023-11-21T07:18:17;45.60;;;25.55;;
52940;SDS011;62001;53.366;6.636;2023-11-21T07:20:43;44.97;;;25.80;;
52940;SDS011;62001;53.366;6.636;2023-11-21T07:23:09;45.85;;;25.58;;
52940;SDS011;62001;53.366;6.636;2023-11-21T07:25:35;45.03;;;25.73;;
52940;SDS011;62001;53.366;6.636;2023-11-21T07:28:01;42.80;;;23.80;;
52940;SDS011;62001;53.366;6.636;2023-11-21T07:30:28;41.08;;;24.10;;
52940;SDS011;62001;53.366;6.636;2023-11-21T07:32:54;43.17;;;25.05;;
52940;SDS011;62001;53.366;6.636;2023-11-21T07:35:20;49.30;;;24.48;;
52940;SDS011;62001;53.366;6.636;2023-11-21T07:37:45;41.15;;;22.92;;
52940;SDS011;62001;53.366;6.636;2023-11-21T07:40:14;41.70;;;23.70;;
52940;SDS011;62001;53.366;6.636;2023-11-21T07:42:40;38.25;;;23.88;;
52940;SDS011;62001;53.366;6.636;2023-11-21T07:45:07;39.53;;;24.20;;
52940;SDS011;62001;53.366;6.636;2023-11-21T07:47:34;39.03;;;23.25;;
52940;SDS011;62001;53.366;6.636;2023-11-21T07:50:02;31.05;;;21.88;;
52940;SDS011;62001;53.366;6.636;2023-11-21T07:52:29;34.75;;;22.25;;
52940;SDS011;62001;53.366;6.636;2023-11-21T07:54:54;29.52;;;20.98;;
52940;SDS011;62001;53.366;6.636;2023-11-21T07:57:21;32.53;;;18.73;;
52940;SDS011;62001;53.366;6.636;2023-11-21T07:59:47;25.17;;;17.42;;
52940;SDS011;62001;53.366;6.636;2023-11-21T08:02:12;24.95;;;17.42;;
52940;SDS011;62001;53.366;6.636;2023-11-21T08:04:39;23.20;;;17.52;;
52940;SDS011;62001;53.366;6.636;2023-11-21T08:07:05;23.60;;;16.75;;
52940;SDS011;62001;53.366;6.636;2023-11-21T08:09:31;22.88;;;15.80;;
52940;SDS011;62001;53.366;6.636;2023-11-21T08:11:58;23.42;;;16.55;;
52940;SDS011;62001;53.366;6.636;2023-11-21T08:14:25;21.10;;;15.40;;
52940;SDS011;62001;53.366;6.636;2023-11-21T08:16:51;20.08;;;15.40;;
52940;SDS011;62001;53.366;6.636;2023-11-21T08:19:17;21.27;;;15.48;;
52940;SDS011;62001;53.366;6.636;2023-11-21T08:21:43;22.40;;;15.35;;
52940;SDS011;62001;53.366;6.636;2023-11-21T08:24:10;20.23;;;15.73;;
52940;SDS011;62001;53.366;6.636;2023-11-21T08:26:37;20.65;;;15.32;;
52940;SDS011;62001;53.366;6.636;2023-11-21T08:29:03;19.92;;;14.70;;
52940;SDS011;62001;53.366;6.636;2023-11-21T08:31:28;21.55;;;14.82;;
52940;SDS011;62001;53.366;6.636;2023-11-21T08:33:54;21.73;;;15.32;;
52940;SDS011;62001;53.366;6.636;2023-11-21T08:36:23;21.50;;;15.82;;
52940;SDS011;62001;53.366;6.636;2023-11-21T08:38:50;24.52;;;18.00;;
52940;SDS011;62001;53.366;6.636;2023-11-21T08:41:17;23.58;;;17.92;;
52940;SDS011;62001;53.366;6.636;2023-11-21T08:43:47;25.40;;;17.80;;
52940;SDS011;62001;53.366;6.636;2023-11-21T08:46:14;27.55;;;19.33;;
52940;SDS011;62001;53.366;6.636;2023-11-21T08:48:43;25.25;;;18.83;;
52940;SDS011;62001;53.366;6.636;2023-11-21T08:51:10;28.67;;;18.88;;
52940;SDS011;62001;53.366;6.636;2023-11-21T08:53:42;25.58;;;18.17;;
52940;SDS011;62001;53.366;6.636;2023-11-21T08:56:08;25.48;;;18.38;;
52940;SDS011;62001;53.366;6.636;2023-11-21T08:58:40;23.25;;;17.70;;
52940;SDS011;62001;53.366;6.636;2023-11-21T09:01:06;30.42;;;17.13;;
52940;SDS011;62001;53.366;6.636;2023-11-21T09:03:32;21.95;;;17.00;;
52940;SDS011;62001;53.366;6.636;2023-11-21T09:05:59;22.73;;;16.65;;
52940;SDS011;62001;53.366;6.636;2023-11-21T09:08:25;22.25;;;16.58;;
52940;SDS011;62001;53.366;6.636;2023-11-21T09:10:53;22.13;;;15.90;;
52940;SDS011;62001;53.366;6.636;2023-11-21T09:13:19;20.13;;;15.23;;
52940;SDS011;62001;53.366;6.636;2023-11-21T09:15:44;19.67;;;14.85;;
52940;SDS011;62001;53.366;6.636;2023-11-21T09:18:14;20.83;;;13.98;;
52940;SDS011;62001;53.366;6.636;2023-11-21T09:20:42;19.77;;;13.32;;
52940;SDS011;62001;53.366;6.636;2023-11-21T09:23:11;19.98;;;14.77;;
52940;SDS011;62001;53.366;6.636;2023-11-21T09:25:37;15.88;;;11.85;;
52940;SDS011;62001;53.366;6.636;2023-11-21T09:28:06;15.82;;;11.93;;
52940;SDS011;62001;53.366;6.636;2023-11-21T09:30:35;15.25;;;10.75;;
52940;SDS011;62001;53.366;6.636;2023-11-21T09:33:01;14.25;;;10.65;;
52940;SDS011;62001;53.366;6.636;2023-11-21T09:35:27;16.85;;;10.95;;
52940;SDS011;62001;53.366;6.636;2023-11-21T09:37:53;13.18;;;10.18;;
52940;SDS011;62001;53.366;6.636;2023-11-21T09:40:21;13.07;;;10.15;;
52940;SDS011;62001;53.366;6.636;2023-11-21T09:42:56;14.23;;;10.13;;
52940;SDS011;62001;53.366;6.636;2023-11-21T09:45:31;13.27;;;10.13;;
52940;SDS011;62001;53.366;6.636;2023-11-21T09:47:59;12.95;;;10.25;;
52940;SDS011;62001;53.366;6.636;2023-11-21T09:50:26;12.32;;;9.75;;
52940;SDS011;62001;53.366;6.636;2023-11-21T09:55:32;13.13;;;9.38;;
52940;SDS011;62001;53.366;6.636;2023-11-21T09:58:04;13.75;;;9.75;;
52940;SDS011;62001;53.366;6.636;2023-11-21T10:00:33;10.90;;;9.05;;
52940;SDS011;62001;53.366;6.636;2023-11-21T10:02:59;13.75;;;10.38;;
52940;SDS011;62001;53.366;6.636;2023-11-21T10:05:25;13.90;;;10.23;;
52940;SDS011;62001;53.366;6.636;2023-11-21T10:07:51;13.48;;;9.43;;
52940;SDS011;62001;53.366;6.636;2023-11-21T10:10:19;11.55;;;9.10;;
52940;SDS011;62001;53.366;6.636;2023-11-21T10:12:48;12.77;;;9.45;;
52940;SDS011;62001;53.366;6.636;2023-11-21T10:15:18;12.13;;;9.07;;
52940;SDS011;62001;53.366;6.636;2023-11-21T10:17:47;13.45;;;9.65;;
52940;SDS011;62001;53.366;6.636;2023-11-21T10:20:15;12.30;;;9.70;;
52940;SDS011;62001;53.366;6.636;2023-11-21T10:22:42;11.52;;;9.27;;
52940;SDS011;62001;53.366;6.636;2023-11-21T10:25:08;13.40;;;9.15;;
52940;SDS011;62001;53.366;6.636;2023-11-21T10:27:36;11.02;;;9.13;;
52940;SDS011;62001;53.366;6.636;2023-11-21T10:30:04;10.93;;;8.93;;
52940;SDS011;62001;53.366;6.636;2023-11-21T10:32:31;11.52;;;8.45;;
52940;SDS011;62001;53.366;6.636;2023-11-21T10:34:58;10.95;;;7.93;;
52940;SDS011;62001;53.366;6.636;2023-11-21T10:37:34;12.55;;;8.77;;
52940;SDS011;62001;53.366;6.636;2023-11-21T10:40:00;10.60;;;9.00;;
52940;SDS011;62001;53.366;6.636;2023-11-21T10:42:26;11.60;;;8.82;;
52940;SDS011;62001;53.366;6.636;2023-11-21T10:44:52;10.02;;;8.05;;
52940;SDS011;62001;53.366;6.636;2023-11-21T10:47:19;11.23;;;8.55;;
52940;SDS011;62001;53.366;6.636;2023-11-21T10:49:48;10.48;;;8.55;;
52940;SDS011;62001;53.366;6.636;2023-11-21T10:52:14;10.50;;;8.70;;
52940;SDS011;62001;53.366;6.636;2023-11-21T10:54:43;11.15;;;8.63;;
52940;SDS011;62001;53.366;6.636;2023-11-21T10:57:09;12.05;;;8.35;;
52940;SDS011;62001;53.366;6.636;2023-11-21T10:59:40;10.57;;;7.43;;
52940;SDS011;62001;53.366;6.636;2023-11-21T11:02:16;9.85;;;8.05;;
52940;SDS011;62001;53.366;6.636;2023-11-21T11:04:47;10.27;;;7.22;;
52940;SDS011;62001;53.366;6.636;2023-11-21T11:07:13;10.40;;;8.40;;
52940;SDS011;62001;53.366;6.636;2023-11-21T11:09:41;8.77;;;7.78;;
52940;SDS011;62001;53.366;6.636;2023-11-21T11:12:10;10.45;;;7.90;;
52940;SDS011;62001;53.366;6.636;2023-11-21T11:14:36;10.80;;;7.85;;
52940;SDS011;62001;53.366;6.636;2023-11-21T11:17:07;12.02;;;8.27;;
52940;SDS011;62001;53.366;6.636;2023-11-21T11:19:34;11.07;;;7.85;;
52940;SDS011;62001;53.366;6.636;2023-11-21T11:27:59;13.93;;;9.07;;
52940;SDS011;62001;53.366;6.636;2023-11-21T11:30:47;11.65;;;8.95;;
52940;SDS011;62001;53.366;6.636;2023-11-21T11:33:46;13.13;;;9.10;;
52940;SDS011;62001;53.366;6.636;2023-11-21T11:42:06;11.43;;;8.80;;
52940;SDS011;62001;53.366;6.636;2023-11-21T11:47:37;13.88;;;8.82;;
52940;SDS011;62001;53.366;6.636;2023-11-21T11:50:05;11.75;;;8.57;;
52940;SDS011;62001;53.366;6.636;2023-11-21T11:52:47;12.93;;;8.68;;
52940;SDS011;62001;53.366;6.636;2023-11-21T11:55:16;10.48;;;8.00;;
52940;SDS011;62001;53.366;6.636;2023-11-21T11:57:44;11.98;;;7.90;;
52940;SDS011;62001;53.366;6.636;2023-11-21T12:00:20;11.27;;;7.70;;
52940;SDS011;62001;53.366;6.636;2023-11-21T12:02:54;10.50;;;8.50;;
52940;SDS011;62001;53.366;6.636;2023-11-21T12:05:27;10.13;;;8.05;;
52940;SDS011;62001;53.366;6.636;2023-11-21T12:07:54;12.70;;;8.63;;
52940;SDS011;62001;53.366;6.636;2023-11-21T12:10:25;12.02;;;7.97;;
52940;SDS011;62001;53.366;6.636;2023-11-21T12:13:05;11.30;;;8.07;;
52940;SDS011;62001;53.366;6.636;2023-11-21T12:15:33;12.05;;;8.35;;
52940;SDS011;62001;53.366;6.636;2023-11-21T12:18:00;12.23;;;8.55;;
52940;SDS011;62001;53.366;6.636;2023-11-21T12:20:26;12.07;;;8.60;;
52940;SDS011;62001;53.366;6.636;2023-11-21T12:22:54;12.05;;;8.70;;
52940;SDS011;62001;53.366;6.636;2023-11-21T12:25:26;13.52;;;8.90;;
52940;SDS011;62001;53.366;6.636;2023-11-21T12:27:59;11.90;;;8.38;;
52940;SDS011;62001;53.366;6.636;2023-11-21T12:30:27;11.35;;;7.60;;
52940;SDS011;62001;53.366;6.636;2023-11-21T12:32:57;10.18;;;6.97;;
52940;SDS011;62001;53.366;6.636;2023-11-21T12:35:26;10.63;;;7.03;;
52940;SDS011;62001;53.366;6.636;2023-11-21T12:37:53;11.57;;;7.20;;
52940;SDS011;62001;53.366;6.636;2023-11-21T12:40:22;11.50;;;7.30;;
52940;SDS011;62001;53.366;6.636;2023-11-21T12:42:48;12.63;;;7.47;;
52940;SDS011;62001;53.366;6.636;2023-11-21T12:47:51;12.07;;;7.75;;
52940;SDS011;62001;53.366;6.636;2023-11-21T12:50:23;11.13;;;6.82;;
52940;SDS011;62001;53.366;6.636;2023-11-21T12:52:54;9.30;;;6.20;;
52940;SDS011;62001;53.366;6.636;2023-11-21T12:55:23;11.80;;;6.03;;
52940;SDS011;62001;53.366;6.636;2023-11-21T12:57:54;10.25;;;5.45;;
52940;SDS011;62001;53.366;6.636;2023-11-21T13:02:55;9.98;;;5.80;;
52940;SDS011;62001;53.366;6.636;2023-11-21T13:05:28;11.60;;;6.03;;
52940;SDS011;62001;53.366;6.636;2023-11-21T13:07:55;10.35;;;5.40;;
52940;SDS011;62001;53.366;6.636;2023-11-21T13:10:27;6.65;;;4.88;;
52940;SDS011;62001;53.366;6.636;2023-11-21T13:13:04;7.78;;;5.05;;
52940;SDS011;62001;53.366;6.636;2023-11-21T13:15:33;9.43;;;5.28;;
52940;SDS011;62001;53.366;6.636;2023-11-21T13:18:01;9.50;;;5.63;;
52940;SDS011;62001;53.366;6.636;2023-11-21T13:20:28;8.25;;;5.47;;
52940;SDS011;62001;53.366;6.636;2023-11-21T13:22:57;9.15;;;4.93;;
52940;SDS011;62001;53.366;6.636;2023-11-21T13:25:27;9.50;;;5.30;;
52940;SDS011;62001;53.366;6.636;2023-11-21T13:27:54;8.60;;;4.80;;
52940;SDS011;62001;53.366;6.636;2023-11-21T13:30:20;10.40;;;5.40;;
52940;SDS011;62001;53.366;6.636;2023-11-21T13:32:56;9.63;;;5.28;;
52940;SDS011;62001;53.366;6.636;2023-11-21T13:35:33;9.43;;;4.90;;
52940;SDS011;62001;53.366;6.636;2023-11-21T13:38:12;8.90;;;4.65;;
52940;SDS011;62001;53.366;6.636;2023-11-21T13:40:46;6.35;;;4.32;;
52940;SDS011;62001;53.366;6.636;2023-11-21T13:43:17;8.35;;;4.70;;
52940;SDS011;62001;53.366;6.636;2023-11-21T13:45:46;9.40;;;4.82;;
52940;SDS011;62001;53.366;6.636;2023-11-21T13:48:15;9.02;;;4.35;;
52940;SDS011;62001;53.366;6.636;2023-11-21T13:50:45;5.18;;;3.20;;
52940;SDS011;62001;53.366;6.636;2023-11-21T13:53:24;6.70;;;4.22;;
52940;SDS011;62001;53.366;6.636;2023-11-21T13:55:53;7.15;;;4.00;;
52940;SDS011;62001;53.366;6.636;2023-11-21T13:58:21;7.47;;;4.47;;
52940;SDS011;62001;53.366;6.636;2023-11-21T14:01:04;10.30;;;4.90;;
52940;SDS011;62001;53.366;6.636;2023-11-21T14:03:31;10.95;;;4.82;;
52940;SDS011;62001;53.366;6.636;2023-11-21T14:06:04;6.25;;;4.30;;
52940;SDS011;62001;53.366;6.636;2023-11-21T14:08:39;6.85;;;4.13;;
52940;SDS011;62001;53.366;6.636;2023-11-21T14:11:07;7.80;;;4.60;;
52940;SDS011;62001;53.366;6.636;2023-11-21T14:13:33;7.78;;;5.00;;
52940;SDS011;62001;53.366;6.636;2023-11-21T14:15:58;8.52;;;4.75;;
52940;SDS011;62001;53.366;6.636;2023-11-21T14:18:26;7.22;;;4.55;;
52940;SDS011;62001;53.366;6.636;2023-11-21T14:20:55;9.70;;;4.32;;
52940;SDS011;62001;53.366;6.636;2023-11-21T14:23:21;6.65;;;4.38;;
52940;SDS011;62001;53.366;6.636;2023-11-21T14:25:48;7.50;;;4.30;;
52940;SDS011;62001;53.366;6.636;2023-11-21T14:28:17;9.63;;;4.13;;
52940;SDS011;62001;53.366;6.636;2023-11-21T14:30:44;7.90;;;4.22;;
52940;SDS011;62001;53.366;6.636;2023-11-21T14:33:11;7.38;;;3.75;;
52940;SDS011;62001;53.366;6.636;2023-11-21T14:35:37;7.40;;;3.78;;
52940;SDS011;62001;53.366;6.636;2023-11-21T14:38:03;7.97;;;4.30;;
52940;SDS011;62001;53.366;6.636;2023-11-21T14:40:30;7.10;;;3.65;;
52940;SDS011;62001;53.366;6.636;2023-11-21T14:42:59;5.80;;;3.75;;
52940;SDS011;62001;53.366;6.636;2023-11-21T14:45:25;7.53;;;4.20;;
52940;SDS011;62001;53.366;6.636;2023-11-21T14:47:52;7.63;;;4.13;;
52940;SDS011;62001;53.366;6.636;2023-11-21T14:50:31;8.55;;;4.18;;
52940;SDS011;62001;53.366;6.636;2023-11-21T14:53:14;6.43;;;4.22;;
52940;SDS011;62001;53.366;6.636;2023-11-21T14:55:39;7.63;;;4.28;;
52940;SDS011;62001;53.366;6.636;2023-11-21T14:58:14;6.90;;;4.00;;